Content, Texas
Current Conditions -  °F | °C
As of 9:35 PM on Saturday 22 Nov 2014 (Local Time) from KCOM Reporting Station
Scattered Clouds Scattered Clouds  
Wind Chill: 55°   Ceiling: Unl
Heat Index: 55°   Visibility: 10mi
Dew Point: 55°   Wind: 10mph
Humidity: 99%   Direction: 250°WSW
Pressure: 29.79"   Gusts: NA
Location:  32.0006°N, 99.5803°W
Report Text: KCOM 230335Z AUTO 25009KT 10SM SCT065 13/13 A2979 RMK AO2 LTG DSNT SE P0001 T01260125
Loading
Personal Weather Stations






























Interactive Weather Map New forecast layout! Learn more

10-Day Weather Forecast

Advertisements
Track Severe Weather on mobile